createdAt,value
2022-11-05T00:01:58.981Z,0.60
2022-11-05T00:04:47.450Z,1.02
2022-11-05T00:07:36.645Z,0.63
2022-11-05T00:10:35.250Z,0.70
2022-11-05T00:13:20.703Z,0.90
2022-11-05T00:16:06.114Z,1.30
2022-11-05T00:18:32.841Z,0.98
2022-11-05T00:20:59.568Z,0.88
2022-11-05T00:23:45.048Z,0.80
2022-11-05T00:26:12.536Z,1.40
2022-11-05T00:28:41.727Z,1.52
2022-11-05T00:31:10.468Z,1.10
2022-11-05T00:33:41.864Z,1.05
2022-11-05T00:36:10.296Z,0.77
2022-11-05T00:38:37.278Z,0.93
2022-11-05T00:41:04.844Z,0.80
2022-11-05T00:43:50.156Z,0.70
2022-11-05T00:46:16.868Z,0.55
2022-11-05T00:49:02.171Z,0.80
2022-11-05T00:51:28.942Z,0.60
2022-11-05T00:53:55.724Z,0.90
2022-11-05T00:56:22.450Z,0.80
2022-11-05T00:58:49.165Z,1.00
2022-11-05T01:01:15.970Z,1.00
2022-11-05T01:03:45.113Z,0.80
2022-11-05T01:06:17.462Z,0.90
2022-11-05T01:08:46.264Z,0.75
2022-11-05T01:11:32.868Z,0.95
2022-11-05T01:14:05.206Z,0.70
2022-11-05T01:16:32.612Z,0.80
2022-11-05T01:19:00.611Z,0.88
2022-11-05T01:21:27.657Z,0.77
2022-11-05T01:23:54.691Z,0.90
2022-11-05T01:26:21.421Z,1.70
2022-11-05T01:28:52.297Z,0.70
2022-11-05T01:31:19.205Z,1.10
2022-11-05T01:33:45.934Z,1.00
2022-11-05T01:36:12.692Z,1.00
2022-11-05T01:38:39.589Z,1.10
2022-11-05T01:41:06.883Z,1.00
2022-11-05T01:43:45.876Z,1.00
2022-11-05T01:46:12.692Z,0.90
2022-11-05T01:48:40.181Z,1.20
2022-11-05T01:51:09.847Z,1.10
2022-11-05T01:53:46.507Z,0.95
2022-11-05T01:56:18.799Z,0.88
2022-11-05T01:58:48.623Z,0.90
2022-11-05T02:01:15.672Z,0.80
2022-11-05T02:03:43.348Z,0.90
2022-11-05T02:06:11.164Z,0.88
2022-11-05T02:08:51.837Z,1.30
2022-11-05T02:11:19.670Z,0.60
2022-11-05T02:13:47.989Z,1.02
2022-11-05T02:16:14.676Z,0.80
2022-11-05T02:18:56.105Z,1.20
2022-11-05T02:21:56.292Z,1.00
2022-11-05T02:24:41.081Z,1.05
2022-11-05T02:27:18.751Z,1.35
2022-11-05T02:30:04.457Z,0.80
2022-11-05T02:32:39.932Z,1.45
2022-11-05T02:35:40.241Z,1.05
2022-11-05T02:38:13.055Z,1.10
2022-11-05T02:40:48.274Z,1.50
2022-11-05T02:43:50.461Z,1.13
2022-11-05T02:46:26.575Z,0.98
2022-11-05T02:49:09.063Z,1.40
2022-11-05T02:52:03.093Z,1.10
2022-11-05T02:54:44.571Z,0.98
2022-11-05T02:57:12.797Z,1.30
2022-11-05T02:59:39.519Z,0.70
2022-11-05T03:02:06.711Z,0.80
2022-11-05T03:04:33.684Z,1.10
2022-11-05T03:07:09.306Z,0.75
2022-11-05T03:10:09.402Z,0.93
2022-11-05T03:13:01.721Z,0.70
2022-11-05T03:15:39.219Z,1.08
2022-11-05T03:18:12.145Z,0.93
2022-11-05T03:20:54.529Z,1.13
2022-11-05T03:23:27.655Z,1.02
2022-11-05T03:26:03.921Z,1.25
2022-11-05T03:28:34.805Z,1.20
2022-11-05T03:31:02.687Z,1.20
2022-11-05T03:33:33.529Z,0.77
2022-11-05T03:36:05.023Z,0.70
2022-11-05T03:38:35.563Z,0.95
2022-11-05T03:41:07.505Z,0.90
2022-11-05T03:43:40.318Z,0.80
2022-11-05T03:46:24.423Z,0.80
2022-11-05T03:48:55.520Z,0.80
2022-11-05T03:51:58.671Z,0.90
2022-11-05T03:54:25.656Z,0.88
2022-11-05T03:57:19.011Z,0.90
2022-11-05T03:59:48.364Z,0.82
2022-11-05T04:02:18.114Z,0.80
2022-11-05T04:04:45.268Z,0.73
2022-11-05T04:07:31.310Z,1.20
2022-11-05T04:10:17.346Z,1.48
2022-11-05T04:13:02.717Z,1.20
2022-11-05T04:15:55.577Z,1.02
2022-11-05T04:18:22.363Z,0.77
2022-11-05T04:21:07.531Z,0.80
2022-11-05T04:23:53.109Z,0.70
2022-11-05T04:26:23.483Z,0.85
2022-11-05T04:29:09.993Z,0.60
2022-11-05T04:31:37.456Z,0.98
2022-11-05T04:34:04.565Z,0.73
2022-11-05T04:36:31.422Z,0.60
2022-11-05T04:38:58.131Z,0.50
2022-11-05T04:41:25.287Z,0.38
2022-11-05T04:43:52.346Z,0.60
2022-11-05T04:46:19.027Z,0.55
2022-11-05T04:48:45.699Z,0.20
2022-11-05T04:51:12.494Z,0.40
2022-11-05T04:53:39.206Z,0.30
2022-11-05T04:56:10.255Z,0.30
2022-11-05T04:58:41.551Z,0.57
2022-11-05T05:01:16.524Z,0.52
2022-11-05T05:03:43.593Z,0.25
2022-11-05T05:06:10.780Z,0.40
2022-11-05T05:08:37.582Z,0.13
2022-11-05T05:11:06.572Z,0.10
2022-11-05T05:13:33.792Z,0.20
2022-11-05T05:16:04.691Z,0.10
2022-11-05T05:18:31.397Z,0.20
2022-11-05T05:21:17.130Z,0.10
2022-11-05T05:23:43.949Z,0.08
2022-11-05T05:26:10.760Z,0.17
2022-11-05T05:28:37.469Z,0.15
2022-11-05T05:31:04.320Z,0.15
2022-11-05T05:33:31.009Z,0.20
2022-11-05T05:35:58.375Z,0.10
2022-11-05T05:38:25.149Z,0.20
2022-11-05T05:40:52.068Z,0.20
2022-11-05T05:43:18.756Z,0.20
2022-11-05T05:45:45.417Z,0.30
2022-11-05T05:48:12.113Z,0.10
2022-11-05T05:50:38.813Z,0.10
2022-11-05T05:53:09.002Z,0.10
2022-11-05T05:55:35.941Z,0.20
2022-11-05T05:58:02.597Z,0.30
2022-11-05T06:00:29.396Z,0.77
2022-11-05T06:02:56.722Z,0.60
2022-11-05T06:05:23.488Z,0.30
2022-11-05T06:07:57.452Z,0.68
2022-11-05T06:10:25.395Z,0.68
2022-11-05T06:12:52.206Z,0.70
2022-11-05T06:15:18.918Z,0.77
2022-11-05T06:17:45.901Z,0.80
2022-11-05T06:20:13.326Z,0.90
2022-11-05T06:22:40.385Z,0.70
2022-11-05T06:25:08.189Z,0.80
2022-11-05T06:27:36.756Z,1.20
2022-11-05T06:30:07.048Z,0.90
2022-11-05T06:32:33.745Z,0.50
2022-11-05T06:35:00.445Z,0.60
2022-11-05T06:37:28.080Z,0.55
2022-11-05T06:39:57.079Z,0.50
2022-11-05T06:42:24.093Z,0.47
2022-11-05T06:44:51.015Z,0.60
2022-11-05T06:47:19.335Z,0.30
2022-11-05T06:49:46.742Z,0.60
2022-11-05T06:52:15.212Z,1.83
2022-11-05T06:54:43.797Z,2.10
2022-11-05T06:57:11.910Z,2.70
2022-11-05T06:59:39.324Z,2.83
2022-11-05T07:02:07.164Z,2.78
2022-11-05T07:04:34.116Z,2.42
2022-11-05T07:07:01.078Z,2.80
2022-11-05T07:09:28.760Z,2.50
2022-11-05T07:11:55.790Z,2.70
2022-11-05T07:14:22.817Z,2.90
2022-11-05T07:16:49.553Z,3.50
2022-11-05T07:19:16.393Z,2.70
2022-11-05T07:21:43.144Z,3.17
2022-11-05T07:24:09.949Z,3.40
2022-11-05T07:26:36.784Z,3.17
2022-11-05T07:29:03.547Z,3.05
2022-11-05T07:31:30.207Z,3.20
2022-11-05T07:33:57.070Z,3.13
2022-11-05T07:36:23.826Z,3.47
2022-11-05T07:38:50.592Z,3.13
2022-11-05T07:41:17.633Z,3.33
2022-11-05T07:43:44.410Z,3.75
2022-11-05T07:46:13.781Z,4.97
2022-11-05T07:48:41.487Z,5.18
2022-11-05T07:51:08.257Z,4.13
2022-11-05T07:53:34.926Z,4.38
2022-11-05T07:56:01.638Z,4.78
2022-11-05T07:58:28.333Z,5.07
2022-11-05T08:00:56.620Z,5.25
2022-11-05T08:03:23.921Z,5.15
2022-11-05T08:05:50.784Z,5.93
2022-11-05T08:08:19.729Z,5.55
2022-11-05T08:10:47.240Z,5.40
2022-11-05T08:13:14.829Z,6.10
2022-11-05T08:15:42.857Z,4.50
2022-11-05T08:18:17.457Z,5.18
2022-11-05T08:20:45.569Z,4.57
2022-11-05T08:23:13.007Z,4.88
2022-11-05T08:25:40.285Z,4.68
2022-11-05T08:28:11.051Z,3.47
2022-11-05T08:30:38.115Z,4.20
2022-11-05T08:33:07.621Z,3.95
2022-11-05T08:35:36.037Z,3.80
2022-11-05T08:38:05.251Z,3.65
2022-11-05T08:40:34.788Z,3.80
2022-11-05T08:43:05.356Z,3.58
2022-11-05T08:45:32.211Z,4.05
2022-11-05T08:48:07.428Z,3.70
2022-11-05T08:50:35.246Z,3.13
2022-11-05T08:53:02.076Z,2.70
2022-11-05T08:55:29.143Z,2.60
2022-11-05T08:58:01.195Z,2.47
2022-11-05T09:00:30.405Z,2.63
2022-11-05T09:03:02.052Z,2.70
2022-11-05T09:08:00.915Z,3.08
2022-11-05T09:10:28.712Z,2.80
2022-11-05T09:12:55.796Z,2.88
2022-11-05T09:15:23.403Z,3.28
2022-11-05T09:17:50.624Z,3.63
2022-11-05T09:20:17.445Z,3.00
2022-11-05T09:22:44.457Z,3.00
2022-11-05T09:25:11.311Z,3.30
2022-11-05T09:27:38.205Z,3.25
2022-11-05T09:30:05.648Z,4.05
2022-11-05T09:32:33.658Z,3.28
2022-11-05T09:35:01.259Z,4.25
2022-11-05T09:37:29.454Z,3.72
2022-11-05T09:39:56.298Z,4.07
2022-11-05T09:42:39.331Z,3.97
2022-11-05T09:45:13.463Z,4.03
2022-11-05T09:47:44.530Z,4.03
2022-11-05T09:50:18.823Z,4.88
2022-11-05T09:52:45.820Z,3.67
2022-11-05T09:55:26.133Z,4.18
2022-11-05T09:57:57.327Z,4.63
2022-11-05T10:00:24.451Z,3.85
2022-11-05T10:02:58.757Z,3.42
2022-11-05T10:05:26.957Z,4.15
2022-11-05T10:07:58.851Z,3.90
2022-11-05T10:10:33.262Z,3.53
2022-11-05T10:13:22.483Z,4.22
2022-11-05T10:16:18.306Z,3.33
2022-11-05T10:18:50.786Z,3.95
2022-11-05T10:21:37.821Z,3.28
2022-11-05T10:24:18.357Z,3.58
2022-11-05T10:26:50.461Z,3.58
2022-11-05T10:29:26.468Z,3.85
2022-11-05T10:31:55.049Z,4.15
2022-11-05T10:34:24.084Z,3.78
2022-11-05T10:36:50.845Z,3.90
2022-11-05T10:39:19.823Z,4.40
2022-11-05T10:41:53.478Z,4.35
2022-11-05T10:44:49.432Z,4.50
2022-11-05T10:47:57.470Z,4.22
2022-11-05T10:50:29.597Z,4.65
2022-11-05T10:53:27.183Z,5.13
2022-11-05T10:55:54.639Z,4.95
2022-11-05T10:58:27.386Z,4.57
2022-11-05T11:00:54.143Z,5.20
2022-11-05T11:03:41.788Z,5.55
2022-11-05T11:06:28.110Z,5.22
2022-11-05T11:08:58.788Z,4.50
2022-11-05T11:11:45.757Z,5.55
2022-11-05T11:14:12.434Z,5.00
2022-11-05T11:16:47.329Z,5.75
2022-11-05T11:19:34.951Z,4.93
2022-11-05T11:22:04.435Z,5.50
2022-11-05T11:24:38.579Z,5.90
2022-11-05T11:27:09.861Z,6.25
2022-11-05T11:29:42.899Z,6.03
2022-11-05T11:32:16.692Z,5.40
2022-11-05T11:34:46.004Z,6.78
2022-11-05T11:37:22.858Z,6.78
2022-11-05T11:39:54.743Z,7.10
2022-11-05T11:42:30.723Z,5.40
2022-11-05T11:45:00.613Z,7.18
2022-11-05T11:47:29.153Z,6.60
2022-11-05T11:50:00.577Z,4.75
2022-11-05T11:52:30.857Z,5.68
2022-11-05T11:55:12.385Z,4.68
2022-11-05T11:57:48.053Z,5.72
2022-11-05T12:00:16.284Z,5.03
2022-11-05T12:03:07.870Z,4.47
2022-11-05T12:05:54.856Z,4.63
2022-11-05T12:08:30.337Z,4.50
2022-11-05T12:11:23.797Z,4.70
2022-11-05T12:13:58.501Z,4.30
2022-11-05T12:16:36.204Z,5.88
2022-11-05T12:19:18.275Z,4.97
2022-11-05T12:22:14.873Z,4.93
2022-11-05T12:25:12.608Z,4.50
2022-11-05T12:27:58.288Z,4.45
2022-11-05T12:30:25.282Z,4.70
2022-11-05T12:33:15.309Z,4.32
2022-11-05T12:36:02.690Z,4.40
2022-11-05T12:39:00.320Z,5.05
2022-11-05T12:41:34.729Z,4.55
2022-11-05T12:44:23.234Z,4.68
2022-11-05T12:47:21.320Z,4.65
2022-11-05T12:50:05.017Z,4.05
2022-11-05T12:52:55.889Z,4.38
2022-11-05T12:55:25.590Z,3.83
2022-11-05T12:57:57.360Z,3.95
2022-11-05T13:00:26.300Z,4.20
2022-11-05T13:03:15.489Z,4.25
2022-11-05T13:06:01.502Z,3.80
2022-11-05T13:08:40.020Z,3.88
2022-11-05T13:11:33.434Z,4.30
2022-11-05T13:14:21.495Z,4.32
2022-11-05T13:17:10.776Z,5.22
2022-11-05T13:19:49.979Z,3.70
2022-11-05T13:22:29.367Z,3.80
2022-11-05T13:25:00.986Z,4.95
2022-11-05T13:30:38.191Z,4.57
2022-11-05T13:33:18.330Z,4.03
2022-11-05T13:35:47.000Z,4.45
2022-11-05T13:38:40.857Z,3.80
2022-11-05T13:41:31.646Z,3.45
2022-11-05T13:44:39.164Z,3.15
2022-11-05T13:47:24.456Z,3.28
2022-11-05T13:50:17.272Z,3.20
2022-11-05T13:53:12.200Z,3.13
2022-11-05T13:56:17.854Z,2.50
2022-11-05T13:59:16.659Z,3.88
2022-11-05T14:02:02.786Z,3.33
2022-11-05T14:04:36.839Z,3.00
2022-11-05T14:07:28.631Z,2.67
2022-11-05T14:12:35.222Z,3.25
2022-11-05T14:15:18.594Z,3.65
2022-11-05T14:18:02.029Z,4.00
2022-11-05T14:20:31.898Z,3.97
2022-11-05T14:23:25.921Z,3.50
2022-11-05T14:25:57.961Z,2.85
2022-11-05T14:28:36.748Z,3.25
2022-11-05T14:31:20.234Z,3.15
2022-11-05T14:34:01.125Z,3.50
2022-11-05T14:36:35.785Z,3.42
2022-11-05T14:39:24.423Z,3.30
2022-11-05T14:42:06.381Z,2.60
2022-11-05T14:44:35.349Z,2.40
2022-11-05T14:47:07.774Z,3.38
2022-11-05T14:49:47.732Z,3.10
2022-11-05T14:52:17.179Z,3.70
2022-11-05T14:54:48.969Z,2.80
2022-11-05T14:57:36.588Z,3.00
2022-11-05T15:00:05.353Z,3.10
2022-11-05T15:02:38.168Z,2.88
2022-11-05T15:05:48.923Z,3.33
2022-11-05T15:08:47.403Z,2.75
2022-11-05T15:11:37.619Z,3.15
2022-11-05T15:14:31.514Z,3.08
2022-11-05T15:17:20.697Z,3.15
2022-11-05T15:19:48.076Z,2.25
2022-11-05T15:22:30.689Z,3.03
2022-11-05T15:24:57.931Z,2.88
2022-11-05T15:27:40.888Z,3.60
2022-11-05T15:30:21.193Z,3.22
2022-11-05T15:32:48.073Z,2.90
2022-11-05T15:35:27.112Z,2.80
2022-11-05T15:38:01.717Z,3.25
2022-11-05T15:40:32.078Z,2.75
2022-11-05T15:43:21.408Z,3.28
2022-11-05T15:46:04.698Z,3.35
2022-11-05T15:48:32.189Z,2.97
2022-11-05T15:50:59.666Z,3.38
2022-11-05T15:53:51.511Z,3.58
2022-11-05T15:56:33.618Z,3.53
2022-11-05T15:59:21.848Z,3.72
2022-11-05T16:01:59.887Z,4.28
2022-11-05T16:04:30.142Z,4.35
2022-11-05T16:07:01.244Z,3.33
2022-11-05T16:09:34.124Z,4.70
2022-11-05T16:12:19.382Z,4.25
2022-11-05T16:15:10.540Z,3.53
2022-11-05T16:17:40.148Z,3.83
2022-11-05T16:20:28.634Z,3.88
2022-11-05T16:23:01.307Z,4.53
2022-11-05T16:25:44.576Z,4.13
2022-11-05T16:28:23.173Z,4.82
2022-11-05T16:30:56.811Z,4.13
2022-11-05T16:33:44.613Z,3.70
2022-11-05T16:36:11.764Z,4.38
2022-11-05T16:38:38.581Z,4.65
2022-11-05T16:41:05.510Z,4.78
2022-11-05T16:43:32.218Z,4.32
2022-11-05T16:46:00.828Z,3.70
2022-11-05T16:48:27.653Z,3.97
2022-11-05T16:50:54.333Z,4.78
2022-11-05T16:53:21.102Z,5.05
2022-11-05T16:55:48.095Z,3.75
2022-11-05T16:58:23.048Z,5.10
2022-11-05T17:00:52.596Z,3.80
2022-11-05T17:03:19.473Z,5.13
2022-11-05T17:05:46.928Z,7.00
2022-11-05T17:08:14.044Z,5.20
2022-11-05T17:10:41.067Z,5.50
2022-11-05T17:13:14.071Z,5.05
2022-11-05T17:15:43.719Z,3.97
2022-11-05T17:18:15.439Z,5.93
2022-11-05T17:20:53.883Z,7.03
2022-11-05T17:23:23.692Z,8.82
2022-11-05T17:25:53.067Z,6.30
2022-11-05T17:28:20.600Z,13.95
2022-11-05T17:30:53.032Z,7.28
2022-11-05T17:33:22.588Z,6.20
2022-11-05T17:35:50.029Z,6.57
2022-11-05T17:38:17.118Z,6.85
2022-11-05T17:40:43.915Z,9.07
2022-11-05T17:43:11.526Z,6.97
2022-11-05T17:45:49.703Z,7.30
2022-11-05T17:48:16.879Z,9.48
2022-11-05T17:50:48.625Z,8.15
2022-11-05T17:55:44.969Z,8.32
2022-11-05T17:58:12.645Z,13.50
2022-11-05T18:00:40.613Z,21.50
2022-11-05T18:03:07.477Z,18.63
2022-11-05T18:05:34.644Z,21.15
2022-11-05T18:08:01.782Z,14.43
2022-11-05T18:10:28.532Z,11.55
2022-11-05T18:12:55.515Z,15.15
2022-11-05T18:15:22.780Z,16.33
2022-11-05T18:17:49.743Z,13.57
2022-11-05T18:20:19.472Z,15.20
2022-11-05T18:22:49.529Z,16.33
2022-11-05T18:25:17.535Z,12.82
2022-11-05T18:27:44.333Z,12.85
2022-11-05T18:30:14.091Z,13.50
2022-11-05T18:32:41.493Z,13.13
2022-11-05T18:35:08.684Z,13.13
2022-11-05T18:37:37.643Z,12.98
2022-11-05T18:40:05.736Z,13.02
2022-11-05T18:42:32.459Z,14.23
2022-11-05T18:44:59.292Z,14.80
2022-11-05T18:47:26.179Z,20.35
2022-11-05T18:49:52.884Z,16.77
2022-11-05T18:52:19.662Z,24.52
2022-11-05T18:54:46.444Z,18.10
2022-11-05T18:57:13.173Z,12.88
2022-11-05T18:59:42.124Z,21.58
2022-11-05T19:02:11.073Z,22.65
2022-11-05T19:04:39.081Z,18.55
2022-11-05T19:07:07.317Z,14.32
2022-11-05T19:09:34.894Z,13.50
2022-11-05T19:12:02.328Z,17.05
2022-11-05T19:14:30.123Z,18.75
2022-11-05T19:16:58.106Z,19.65
2022-11-05T19:19:25.034Z,16.80
2022-11-05T19:21:52.183Z,16.92
2022-11-05T19:24:19.178Z,16.05
2022-11-05T19:26:46.790Z,16.13
2022-11-05T19:29:13.709Z,15.93
2022-11-05T19:31:40.469Z,17.83
2022-11-05T19:34:07.249Z,19.10
2022-11-05T19:36:34.390Z,20.48
2022-11-05T19:39:08.863Z,20.92
2022-11-05T19:41:35.730Z,14.88
2022-11-05T19:44:03.192Z,24.95
2022-11-05T19:46:31.007Z,24.58
2022-11-05T19:48:59.753Z,20.60
2022-11-05T19:51:29.404Z,17.38
2022-11-05T19:53:56.188Z,12.82
2022-11-05T19:56:26.017Z,11.57
2022-11-05T19:58:53.694Z,10.43
2022-11-05T20:01:22.241Z,12.65
2022-11-05T20:03:50.149Z,10.63
2022-11-05T20:06:31.683Z,12.38
2022-11-05T20:09:20.972Z,11.02
2022-11-05T20:11:48.698Z,10.05
2022-11-05T20:14:15.549Z,12.13
2022-11-05T20:16:43.396Z,11.93
2022-11-05T20:19:13.964Z,11.73
2022-11-05T20:21:41.438Z,12.70
2022-11-05T20:24:08.404Z,14.50
2022-11-05T20:26:35.464Z,12.57
2022-11-05T20:29:02.351Z,11.60
2022-11-05T20:31:29.122Z,11.90
2022-11-05T20:33:56.496Z,13.00
2022-11-05T20:36:25.097Z,11.15
2022-11-05T20:39:02.764Z,10.55
2022-11-05T20:41:30.759Z,11.80
2022-11-05T20:43:57.522Z,10.25
2022-11-05T20:46:24.412Z,9.00
2022-11-05T20:48:51.566Z,9.52
2022-11-05T20:51:20.976Z,9.75
2022-11-05T20:53:48.929Z,15.18
2022-11-05T20:56:23.248Z,15.07
2022-11-05T20:58:51.068Z,18.83
2022-11-05T21:01:18.666Z,28.27
2022-11-05T21:03:47.080Z,32.00
2022-11-05T21:06:14.738Z,31.15
2022-11-05T21:08:41.517Z,29.08
2022-11-05T21:11:10.134Z,27.60
2022-11-05T21:13:36.925Z,25.90
2022-11-05T21:16:06.355Z,25.98
2022-11-05T21:18:35.953Z,24.13
2022-11-05T21:21:07.056Z,27.55
2022-11-05T21:23:34.150Z,25.33
2022-11-05T21:26:08.165Z,23.30
2022-11-05T21:28:37.093Z,20.83
2022-11-05T21:31:05.912Z,21.52
2022-11-05T21:33:36.229Z,16.23
2022-11-05T21:36:11.757Z,20.33
2022-11-05T21:38:39.160Z,20.50
2022-11-05T21:41:07.067Z,31.88
2022-11-05T21:43:33.811Z,46.42
2022-11-05T21:46:02.349Z,25.08
2022-11-05T21:48:29.163Z,31.50
2022-11-05T21:51:14.449Z,21.55
2022-11-05T21:53:59.935Z,28.30
2022-11-05T21:56:47.167Z,52.08
2022-11-05T21:59:41.741Z,27.27
2022-11-05T22:02:11.318Z,23.65
2022-11-05T22:04:44.167Z,24.50
2022-11-05T22:07:13.572Z,24.77
2022-11-05T22:09:40.536Z,23.17
2022-11-05T22:12:08.069Z,29.35
2022-11-05T22:14:35.698Z,29.75
2022-11-05T22:17:02.938Z,20.85
2022-11-05T22:19:31.248Z,20.02
2022-11-05T22:21:58.027Z,19.85
2022-11-05T22:24:25.627Z,25.58
2022-11-05T22:26:52.785Z,22.15
2022-11-05T22:29:19.683Z,24.48
2022-11-05T22:31:49.652Z,21.83
2022-11-05T22:34:17.270Z,33.60
2022-11-05T22:36:44.302Z,25.85
2022-11-05T22:39:12.329Z,30.73
2022-11-05T22:41:40.038Z,25.08
2022-11-05T22:44:07.045Z,27.45
2022-11-05T22:46:34.054Z,25.60
2022-11-05T22:49:01.126Z,23.52
2022-11-05T22:51:32.566Z,22.60
2022-11-05T22:53:59.591Z,22.00
2022-11-05T22:56:29.301Z,18.85
2022-11-05T22:58:56.256Z,23.77
2022-11-05T23:01:24.005Z,19.00
2022-11-05T23:03:52.842Z,26.85
2022-11-05T23:06:41.024Z,23.50
2022-11-05T23:09:51.236Z,26.55
2022-11-05T23:12:27.431Z,27.58
2022-11-05T23:14:56.775Z,21.10
2022-11-05T23:17:58.890Z,18.52
2022-11-05T23:20:48.085Z,21.83
2022-11-05T23:23:45.327Z,24.55
2022-11-05T23:26:33.865Z,20.80
2022-11-05T23:29:04.443Z,17.30
2022-11-05T23:31:50.702Z,15.57
2022-11-05T23:34:21.167Z,15.60
2022-11-05T23:37:07.427Z,13.98
2022-11-05T23:39:41.181Z,13.60
2022-11-05T23:42:38.391Z,11.77
2022-11-05T23:45:34.780Z,8.82
2022-11-05T23:48:20.548Z,8.77
2022-11-05T23:51:01.482Z,10.07
2022-11-05T23:53:41.234Z,12.27
2022-11-05T23:56:21.536Z,8.90
2022-11-05T23:58:52.015Z,8.73
